Flight Track Log - Related Links

Times and Time Zones

All times are in EDT time to prevent confusion due to time zone crossing. See the UAL481 flight status page for this flight to view local times or setup timezone preferences in your user account.

Time Position Orientation Groundspeed Altitude Reporting Facility
EDT Latitude Longitude Course Direction KTS MPH feet Rate Location/Type
Tue 08:46:04 PM 42.7297 -73.8081 282° West 141 162 1,100  Level Boston Center
Tue 08:47:31 PM 42.7311 -73.8647 272° West 209 241 3,500 2,204 Climbing Boston Center
Tue 08:48:00 PM 42.8106 -74.2084 284° West  Level FlightAware Approximate
Tue 08:48:31 PM 42.7889 -73.9083 331° Northwest 221 254 6,500  Level Boston Center
Tue 08:49:00 PM 42.8355 -74.3464 283° West  Level FlightAware Approximate
Tue 08:49:31 PM 42.8508 -73.9581 330° Northwest 240 276 9,600  Level Boston Center
Tue 08:50:00 PM 42.8587 -74.4851 283° West  Level FlightAware Approximate
Tue 08:50:31 PM 42.9106 -74.0106 327° Northwest 268 308 10,900  Level Boston Center
Tue 08:51:00 PM 42.8934 -74.6132 282° West  Level FlightAware Approximate
Tue 08:51:31 PM 42.9775 -74.1344 306° West 334 384 12,800  Level Boston Center
Tue 08:52:31 PM 43.0344 -74.2381 307° West 388 447 16,100 3,000 Climbing Boston Center
Tue 08:53:31 PM 43.1114 -74.3656 310° West 388 447 18,800 1,700 Climbing Boston Center
Tue 08:54:31 PM 43.1489 -74.4947 292° West 398 458 19,500 1,091 Climbing Boston Center
Tue 08:55:43 PM 43.1606 -74.6517 276° West 405 466 21,200 1,364 Climbing Boston Center
Tue 08:56:43 PM 43.1772 -74.8517 277° West 421 484 22,500 1,050 Climbing Boston Center
Tue 08:57:43 PM 43.1883 -75.0144 275° West 433 498 23,300 750 Climbing Boston Center
Tue 08:58:43 PM 43.2053 -75.1833 278° West 444 511 24,000 700 Climbing Boston Center
Tue 08:59:43 PM 43.2217 -75.3608 277° West 456 525 24,700 850 Climbing Boston Center
Tue 09:00:43 PM 43.2397 -75.5497 278° West 456 525 25,700 1,000 Climbing Boston Center
Tue 09:01:43 PM 43.2308 -75.7175 266° West 456 525 26,700 1,050 Climbing Boston Center
Tue 09:02:43 PM 43.2150 -75.8933 263° West 461 531 27,800 1,150 Climbing Boston Center
Tue 09:03:43 PM 43.1994 -76.0606 263° West 461 531 29,000 1,150 Climbing Boston Center
Tue 09:04:43 PM 43.1836 -76.2306 263° West 461 531 30,100 1,235 Climbing Boston Center
Tue 09:05:59 PM 43.1650 -76.4242 263° West 440 506 31,800 1,279 Climbing Cleveland Center
Tue 09:06:59 PM 43.1497 -76.5847 263° West 435 501 33,000 1,450 Climbing Cleveland Center
Tue 09:07:59 PM 43.1369 -76.7619 264° West 429 494 34,700 1,500 Climbing Cleveland Center
Tue 09:08:59 PM 43.1442 -76.9153 274° West 423 487 36,000 650 Climbing Cleveland Center
Tue 09:09:59 PM 43.1511 -77.0742 273° West 423 487 36,000  Level Cleveland Center
Tue 09:10:59 PM 43.1578 -77.2306 273° West 418 481 36,000  Level Cleveland Center
Tue 09:11:59 PM 43.1642 -77.3839 273° West 418 481 36,000  Level Cleveland Center
Tue 09:12:59 PM 43.1728 -77.5428 274° West 418 481 36,000  Level Cleveland Center
Tue 09:13:59 PM 43.1767 -77.6992 272° West 418 481 36,000  Level Cleveland Center
Tue 09:14:59 PM 43.1847 -77.8583 274° West 418 481 36,000  Level Cleveland Center
Tue 09:15:59 PM 43.1883 -78.0147 272° West 418 481 36,000  Level Cleveland Center
Tue 09:16:59 PM 43.1939 -78.1742 273° West 418 481 36,000  Level Cleveland Center
Tue 09:17:59 PM 43.1992 -78.3333 273° West 418 481 36,000  Level Cleveland Center
Tue 09:18:59 PM 43.2042 -78.4928 273° West 418 481 36,000  Level Cleveland Center
Tue 09:19:59 PM 43.2089 -78.6522 272° West 418 481 36,000  Level Cleveland Center
Tue 09:20:59 PM 43.2136 -78.8114 272° West 418 481 36,000  Level Cleveland Center
Tue 09:21:43 PM 43.2167 -78.9000 273° West 420 483 36,000  Level Toronto Center
Tue 09:22:43 PM 43.2167 -79.0667 270° West 420 483 36,000  Level Toronto Center
Tue 09:23:43 PM 43.2167 -79.2500 270° West 420 483 36,000  Level Toronto Center
Tue 09:24:43 PM 43.2167 -79.3833 270° West 430 495 36,000  Level Toronto Center
Tue 09:25:43 PM 43.2167 -79.5667 270° West 430 495 36,000  Level Toronto Center
Tue 09:26:43 PM 43.2333 -79.7167 279° West 430 495 36,000  Level Toronto Center
Tue 09:27:43 PM 43.2333 -79.8833 270° West 430 495 36,000  Level Toronto Center
Tue 09:28:43 PM 43.2333 -80.0500 270° West 430 495 36,000  Level Toronto Center
Tue 09:29:43 PM 43.2333 -80.2000 270° West 430 495 36,000  Level Toronto Center
Tue 09:30:43 PM 43.2333 -80.3667 270° West 430 495 36,000  Level Toronto Center
Tue 09:31:43 PM 43.2500 -80.5333 278° West 410 472 36,000  Level Toronto Center
Tue 09:32:43 PM 43.2500 -80.6833 270° West 410 472 36,000  Level Toronto Center
Tue 09:33:43 PM 43.2333 -80.8167 260° West 410 472 36,000  Level Toronto Center
Tue 09:34:43 PM 43.2333 -81.0000 270° West 410 472 36,000  Level Toronto Center
Tue 09:35:43 PM 43.2333 -81.1500 270° West 410 472 36,000  Level Toronto Center
Tue 09:36:43 PM 43.2500 -81.3000 279° West 410 472 36,000  Level Toronto Center
Tue 09:37:43 PM 43.2500 -81.4333 270° West 390 449 36,000  Level Toronto Center
Tue 09:38:43 PM 43.2500 -81.6000 270° West 390 449 36,000  Level Toronto Center
Tue 09:39:43 PM 43.2500 -81.7667 270° West 400 460 36,000  Level Toronto Center
Tue 09:40:43 PM 43.2500 -81.9000 270° West 390 449 36,000  Level Toronto Center
Tue 09:41:43 PM 43.2333 -82.0667 262° West 390 449 36,000  Level Toronto Center
Tue 09:42:43 PM 43.2500 -82.2000 280° West 390 449 36,000  Level Toronto Center
Tue 09:43:43 PM 43.2500 -82.3500 270° West 390 449 36,000  Level Toronto Center
Tue 09:44:43 PM 43.2500 -82.5000 270° West 390 449 36,000 -50 Level Toronto Center
Tue 09:45:43 PM 43.2333 -82.6500 261° West 380 437 35,900  Descending Toronto Center
Tue 09:46:43 PM 43.2167 -82.7833 260° West 380 437 36,000 50 Climbing Toronto Center
Tue 09:47:43 PM 43.1833 -82.9333 253° West 380 437 36,000 -100 Level Toronto Center
Tue 09:48:43 PM 43.1500 -83.0333 245° Southwest 370 426 35,800 -500 Descending Toronto Center
Tue 09:49:43 PM 43.1167 -83.2000 255° West 390 449 35,000 -800 Descending Toronto Center
Tue 09:50:43 PM 43.0667 -83.3333 243° Southwest 410 472 34,200 -800 Descending Toronto Center
Tue 09:51:43 PM 43.0333 -83.4833 253° West 410 472 33,400 -800 Descending Toronto Center
Tue 09:52:43 PM 43.0000 -83.6167 251° West 420 483 32,600 -700 Descending Toronto Center
Tue 09:53:43 PM 42.9500 -83.7833 248° West 420 483 32,000 -298 Descending Toronto Center
Tue 09:54:44 PM 42.9492 -83.9269 270° West 418 481 32,000  Level Chicago Center
Tue 09:55:46 PM 42.9344 -84.0800 263° West 410 472 32,000  Level Chicago Center
Tue 09:56:47 PM 42.9197 -84.2336 263° West 410 472 32,000  Level Chicago Center
Tue 09:57:49 PM 42.8997 -84.4222 262° West 419 482 32,000  Level Chicago Center
Tue 09:58:51 PM 42.8842 -84.5803 262° West 420 483 32,000  Level Chicago Center
Tue 09:59:52 PM 42.8683 -84.7356 262° West 417 480 32,000  Level Chicago Center
Tue 10:00:54 PM 42.8517 -84.8911 262° West 415 478 32,000 -293 Level Chicago Center
Tue 10:01:55 PM 42.8358 -85.0472 262° West 416 479 31,400 -1,171 Descending Chicago Center
Tue 10:02:57 PM 42.8181 -85.2064 261° West 423 487 29,600 -2,419 Descending Chicago Center
Tue 10:03:59 PM 42.8156 -85.3725 269° West 439 505 26,400 -2,000 Descending Chicago Center
Tue 10:05:00 PM 42.8272 -85.5294 276° West 424 488 25,500 -1,024 Descending Chicago Center
Tue 10:06:02 PM 42.8328 -85.7017 273° West 390 449 24,300 -1,073 Descending Chicago Center
Tue 10:07:03 PM 42.7917 -85.8294 246° West 370 426 23,300 -1,073 Descending Chicago Center
Tue 10:08:05 PM 42.7536 -85.9464 246° West 347 399 22,100 -1,500 Descending Chicago Center
Tue 10:09:07 PM 42.7161 -86.0589 246° West 329 379 20,200 -1,024 Descending Chicago Center
Tue 10:10:08 PM 42.6792 -86.1703 246° West 324 373 20,000 -98 Descending Chicago Center
Tue 10:11:10 PM 42.6447 -86.2814 247° West 320 368 20,000 -293 Level Chicago Center
Tue 10:12:11 PM 42.6553 -86.4003 277° West 314 361 19,400 -1,220 Descending Chicago Center
Tue 10:13:13 PM 42.6669 -86.5172 278° West 314 361 17,500 -1,659 Descending Chicago Center
Tue 10:14:14 PM 42.6786 -86.6306 278° West 305 351 16,000 -1,171 Descending Chicago Center
Tue 10:15:16 PM 42.6881 -86.7439 277° West 303 349 15,100 -1,463 Descending Chicago Center
Tue 10:16:17 PM 42.6828 -86.8758 267° West 307 353 13,000 -1,756 Descending Chicago Center
Tue 10:17:19 PM 42.6336 -86.9681 234° Southwest 303 349 11,500 -976 Descending Chicago Center
Tue 10:18:20 PM 42.5931 -87.0617 240° Southwest 292 336 11,000 -732 Descending Chicago Center
Tue 10:19:22 PM 42.5519 -87.1536 239° Southwest 288 331 10,000 -976 Descending Chicago Center
Tue 10:20:23 PM 42.5067 -87.2383 234° Southwest 282 325 9,000 -488 Descending Chicago Center
Tue 10:21:25 PM 42.4592 -87.3217 232° Southwest 282 325 9,000 -146 Level Chicago Center
Tue 10:22:26 PM 42.4089 -87.4086 232° Southwest 275 316 8,700 -976 Descending Chicago Center
Tue 10:23:28 PM 42.3575 -87.5006 233° Southwest 275 316 7,000 -1,317 Descending Chicago Center
Tue 10:24:29 PM 42.3131 -87.5625 226° Southwest 266 306 6,000 -488 Descending Chicago Center
Tue 10:25:31 PM 42.2372 -87.5622 180° South 280 322 6,000  Level Chicago Center
Tue 10:26:32 PM 42.1478 -87.5472 173° South 268 308 6,000 -195 Level Chicago Center
Tue 10:27:34 PM 42.0892 -87.5372 173° South 217 250 5,600 -683 Descending Chicago Center
Tue 10:28:35 PM 42.0469 -87.4928 142° Southeast 226 260 4,600 -787 Descending Chicago Center
Tue 10:29:36 PM 42.0161 -87.4547 137° Southeast 205 236 4,000 -244 Descending Chicago Center
Tue 10:30:38 PM 41.9844 -87.5067 231° Southwest 203 234 4,100  Climbing Chicago Center
Tue 10:31:39 PM 41.9828 -87.5761 268° West 184 212 4,000 -49 Descending Chicago Center
Tue 10:32:41 PM 41.9839 -87.6428 271° West 180 207 4,000 -488 Level Chicago Center
Tue 10:33:42 PM 41.9844 -87.7256 271° West 184 212 3,000 -984 Descending Chicago Center
Tue 10:34:43 PM 41.9842 -87.7933 270° West 184 212 2,000 -984 Descending Chicago Center

Login

Don't have an account? Register now (free) for customized features, flight alerts, and more!